sensor_id;sensor_type;location;lat;lon;timestamp;P1;durP1;ratioP1;P2;durP2;ratioP2
38262;SDS011;24054;50.128;19.730;2024-02-28T00:02:24;17.90;;;13.60;;
38262;SDS011;24054;50.128;19.730;2024-02-28T00:04:52;17.05;;;13.77;;
38262;SDS011;24054;50.128;19.730;2024-02-28T00:07:19;18.05;;;12.88;;
38262;SDS011;24054;50.128;19.730;2024-02-28T00:09:46;17.27;;;12.50;;
38262;SDS011;24054;50.128;19.730;2024-02-28T00:12:13;16.65;;;13.35;;
38262;SDS011;24054;50.128;19.730;2024-02-28T00:14:40;16.20;;;12.75;;
38262;SDS011;24054;50.128;19.730;2024-02-28T00:17:07;14.27;;;12.35;;
38262;SDS011;24054;50.128;19.730;2024-02-28T00:19:34;16.92;;;12.35;;
38262;SDS011;24054;50.128;19.730;2024-02-28T00:22:03;15.93;;;12.80;;
38262;SDS011;24054;50.128;19.730;2024-02-28T00:24:30;17.63;;;13.50;;
38262;SDS011;24054;50.128;19.730;2024-02-28T00:26:57;15.88;;;12.35;;
38262;SDS011;24054;50.128;19.730;2024-02-28T00:29:24;16.23;;;12.65;;
38262;SDS011;24054;50.128;19.730;2024-02-28T00:31:51;15.10;;;12.32;;
38262;SDS011;24054;50.128;19.730;2024-02-28T00:34:18;15.60;;;12.20;;
38262;SDS011;24054;50.128;19.730;2024-02-28T00:36:45;14.82;;;12.38;;
38262;SDS011;24054;50.128;19.730;2024-02-28T00:39:13;13.50;;;12.07;;
38262;SDS011;24054;50.128;19.730;2024-02-28T00:41:40;16.52;;;12.80;;
38262;SDS011;24054;50.128;19.730;2024-02-28T00:44:08;13.60;;;12.02;;
38262;SDS011;24054;50.128;19.730;2024-02-28T00:46:35;15.32;;;11.70;;
38262;SDS011;24054;50.128;19.730;2024-02-28T00:49:02;15.10;;;11.90;;
38262;SDS011;24054;50.128;19.730;2024-02-28T00:51:29;13.50;;;11.55;;
38262;SDS011;24054;50.128;19.730;2024-02-28T00:53:58;15.57;;;12.32;;
38262;SDS011;24054;50.128;19.730;2024-02-28T00:56:27;15.48;;;12.63;;
38262;SDS011;24054;50.128;19.730;2024-02-28T00:58:54;14.60;;;10.80;;
38262;SDS011;24054;50.128;19.730;2024-02-28T01:01:23;16.67;;;11.95;;
38262;SDS011;24054;50.128;19.730;2024-02-28T01:03:50;15.98;;;12.48;;
38262;SDS011;24054;50.128;19.730;2024-02-28T01:06:17;14.20;;;11.45;;
38262;SDS011;24054;50.128;19.730;2024-02-28T01:08:44;13.93;;;11.70;;
38262;SDS011;24054;50.128;19.730;2024-02-28T01:11:11;15.65;;;11.63;;
38262;SDS011;24054;50.128;19.730;2024-02-28T01:13:40;14.32;;;11.77;;
38262;SDS011;24054;50.128;19.730;2024-02-28T01:16:06;15.02;;;12.35;;
38262;SDS011;24054;50.128;19.730;2024-02-28T01:18:33;15.52;;;11.98;;
38262;SDS011;24054;50.128;19.730;2024-02-28T01:21:00;14.63;;;11.65;;
38262;SDS011;24054;50.128;19.730;2024-02-28T01:23:27;15.73;;;11.88;;
38262;SDS011;24054;50.128;19.730;2024-02-28T01:25:54;14.00;;;11.65;;
38262;SDS011;24054;50.128;19.730;2024-02-28T01:28:21;16.45;;;12.07;;
38262;SDS011;24054;50.128;19.730;2024-02-28T01:30:50;15.43;;;11.88;;
38262;SDS011;24054;50.128;19.730;2024-02-28T01:33:17;13.48;;;10.70;;
38262;SDS011;24054;50.128;19.730;2024-02-28T01:35:44;14.75;;;11.75;;
38262;SDS011;24054;50.128;19.730;2024-02-28T01:38:11;14.70;;;11.48;;
38262;SDS011;24054;50.128;19.730;2024-02-28T01:40:38;13.88;;;11.45;;
38262;SDS011;24054;50.128;19.730;2024-02-28T01:43:11;13.23;;;10.90;;
38262;SDS011;24054;50.128;19.730;2024-02-28T01:45:38;13.65;;;11.32;;
38262;SDS011;24054;50.128;19.730;2024-02-28T01:48:07;14.73;;;12.45;;
38262;SDS011;24054;50.128;19.730;2024-02-28T01:50:36;13.93;;;11.45;;
38262;SDS011;24054;50.128;19.730;2024-02-28T01:53:04;13.35;;;10.82;;
38262;SDS011;24054;50.128;19.730;2024-02-28T01:55:34;15.40;;;11.38;;
38262;SDS011;24054;50.128;19.730;2024-02-28T01:58:02;13.23;;;11.30;;
38262;SDS011;24054;50.128;19.730;2024-02-28T02:00:30;14.98;;;12.18;;
38262;SDS011;24054;50.128;19.730;2024-02-28T02:05:28;14.18;;;11.65;;
38262;SDS011;24054;50.128;19.730;2024-02-28T02:07:55;14.60;;;11.15;;
38262;SDS011;24054;50.128;19.730;2024-02-28T02:10:24;15.88;;;12.23;;
38262;SDS011;24054;50.128;19.730;2024-02-28T02:12:52;15.30;;;12.23;;
38262;SDS011;24054;50.128;19.730;2024-02-28T02:15:19;15.85;;;12.65;;
38262;SDS011;24054;50.128;19.730;2024-02-28T02:17:46;13.70;;;10.90;;
38262;SDS011;24054;50.128;19.730;2024-02-28T02:20:14;14.88;;;13.00;;
38262;SDS011;24054;50.128;19.730;2024-02-28T02:22:43;14.48;;;11.70;;
38262;SDS011;24054;50.128;19.730;2024-02-28T02:25:09;14.38;;;11.35;;
38262;SDS011;24054;50.128;19.730;2024-02-28T02:27:36;14.95;;;11.45;;
38262;SDS011;24054;50.128;19.730;2024-02-28T02:30:04;15.52;;;12.13;;
38262;SDS011;24054;50.128;19.730;2024-02-28T02:32:32;14.23;;;11.68;;
38262;SDS011;24054;50.128;19.730;2024-02-28T02:34:59;13.55;;;10.60;;
38262;SDS011;24054;50.128;19.730;2024-02-28T02:37:26;13.82;;;11.68;;
38262;SDS011;24054;50.128;19.730;2024-02-28T02:39:54;14.20;;;11.38;;
38262;SDS011;24054;50.128;19.730;2024-02-28T02:42:21;17.13;;;10.75;;
38262;SDS011;24054;50.128;19.730;2024-02-28T02:44:49;14.15;;;11.88;;
38262;SDS011;24054;50.128;19.730;2024-02-28T02:47:16;14.27;;;11.10;;
38262;SDS011;24054;50.128;19.730;2024-02-28T02:49:43;13.43;;;11.38;;
38262;SDS011;24054;50.128;19.730;2024-02-28T02:52:10;14.55;;;11.55;;
38262;SDS011;24054;50.128;19.730;2024-02-28T02:54:37;14.65;;;11.77;;
38262;SDS011;24054;50.128;19.730;2024-02-28T02:57:05;13.90;;;11.65;;
38262;SDS011;24054;50.128;19.730;2024-02-28T02:59:33;13.35;;;11.05;;
38262;SDS011;24054;50.128;19.730;2024-02-28T03:02:00;13.48;;;11.07;;
38262;SDS011;24054;50.128;19.730;2024-02-28T03:04:27;13.20;;;11.05;;
38262;SDS011;24054;50.128;19.730;2024-02-28T03:06:54;13.90;;;11.70;;
38262;SDS011;24054;50.128;19.730;2024-02-28T03:09:21;13.65;;;11.45;;
38262;SDS011;24054;50.128;19.730;2024-02-28T03:11:48;13.73;;;11.27;;
38262;SDS011;24054;50.128;19.730;2024-02-28T03:14:16;13.75;;;11.75;;
38262;SDS011;24054;50.128;19.730;2024-02-28T03:16:44;15.82;;;11.80;;
38262;SDS011;24054;50.128;19.730;2024-02-28T03:19:11;12.73;;;11.32;;
38262;SDS011;24054;50.128;19.730;2024-02-28T03:21:38;14.48;;;11.70;;
38262;SDS011;24054;50.128;19.730;2024-02-28T03:24:06;12.60;;;11.13;;
38262;SDS011;24054;50.128;19.730;2024-02-28T03:26:33;13.80;;;10.55;;
38262;SDS011;24054;50.128;19.730;2024-02-28T03:29:00;14.40;;;10.85;;
38262;SDS011;24054;50.128;19.730;2024-02-28T03:31:29;14.38;;;11.70;;
38262;SDS011;24054;50.128;19.730;2024-02-28T03:33:56;13.98;;;11.52;;
38262;SDS011;24054;50.128;19.730;2024-02-28T03:36:23;13.02;;;11.05;;
38262;SDS011;24054;50.128;19.730;2024-02-28T03:38:50;14.07;;;10.85;;
38262;SDS011;24054;50.128;19.730;2024-02-28T03:41:17;15.00;;;11.93;;
38262;SDS011;24054;50.128;19.730;2024-02-28T03:43:44;13.73;;;11.48;;
38262;SDS011;24054;50.128;19.730;2024-02-28T03:46:11;14.38;;;11.52;;
38262;SDS011;24054;50.128;19.730;2024-02-28T03:48:40;16.30;;;11.98;;
38262;SDS011;24054;50.128;19.730;2024-02-28T03:51:07;14.05;;;11.27;;
38262;SDS011;24054;50.128;19.730;2024-02-28T03:53:34;12.52;;;10.50;;
38262;SDS011;24054;50.128;19.730;2024-02-28T03:56:01;14.15;;;11.05;;
38262;SDS011;24054;50.128;19.730;2024-02-28T03:58:28;12.27;;;10.77;;
38262;SDS011;24054;50.128;19.730;2024-02-28T04:00:55;12.85;;;11.18;;
38262;SDS011;24054;50.128;19.730;2024-02-28T04:03:23;14.85;;;11.60;;
38262;SDS011;24054;50.128;19.730;2024-02-28T04:05:51;15.88;;;11.85;;
38262;SDS011;24054;50.128;19.730;2024-02-28T04:08:18;12.70;;;10.80;;
38262;SDS011;24054;50.128;19.730;2024-02-28T04:10:45;14.68;;;11.68;;
38262;SDS011;24054;50.128;19.730;2024-02-28T04:13:12;13.73;;;11.43;;
38262;SDS011;24054;50.128;19.730;2024-02-28T04:15:39;12.52;;;10.82;;
38262;SDS011;24054;50.128;19.730;2024-02-28T04:18:07;12.40;;;10.82;;
38262;SDS011;24054;50.128;19.730;2024-02-28T04:20:34;12.18;;;10.20;;
38262;SDS011;24054;50.128;19.730;2024-02-28T04:23:03;14.07;;;11.75;;
38262;SDS011;24054;50.128;19.730;2024-02-28T04:25:30;14.13;;;11.07;;
38262;SDS011;24054;50.128;19.730;2024-02-28T04:27:57;13.30;;;10.98;;
38262;SDS011;24054;50.128;19.730;2024-02-28T04:30:23;13.75;;;11.20;;
38262;SDS011;24054;50.128;19.730;2024-02-28T04:32:49;13.35;;;11.27;;
38262;SDS011;24054;50.128;19.730;2024-02-28T04:35:17;14.00;;;11.80;;
38262;SDS011;24054;50.128;19.730;2024-02-28T04:37:44;13.57;;;11.60;;
38262;SDS011;24054;50.128;19.730;2024-02-28T04:40:13;13.93;;;11.23;;
38262;SDS011;24054;50.128;19.730;2024-02-28T04:42:41;12.35;;;10.50;;
38262;SDS011;24054;50.128;19.730;2024-02-28T04:45:08;13.02;;;10.82;;
38262;SDS011;24054;50.128;19.730;2024-02-28T04:47:36;12.77;;;11.23;;
38262;SDS011;24054;50.128;19.730;2024-02-28T04:50:04;16.70;;;10.90;;
38262;SDS011;24054;50.128;19.730;2024-02-28T04:52:31;11.95;;;10.57;;
38262;SDS011;24054;50.128;19.730;2024-02-28T04:54:59;12.63;;;11.07;;
38262;SDS011;24054;50.128;19.730;2024-02-28T04:57:27;14.00;;;11.20;;
38262;SDS011;24054;50.128;19.730;2024-02-28T04:59:54;13.35;;;11.25;;
38262;SDS011;24054;50.128;19.730;2024-02-28T05:02:21;13.27;;;11.00;;
38262;SDS011;24054;50.128;19.730;2024-02-28T05:04:49;13.55;;;11.27;;
38262;SDS011;24054;50.128;19.730;2024-02-28T05:07:16;13.52;;;11.63;;
38262;SDS011;24054;50.128;19.730;2024-02-28T05:09:43;13.55;;;11.82;;
38262;SDS011;24054;50.128;19.730;2024-02-28T05:12:10;13.68;;;11.18;;
38262;SDS011;24054;50.128;19.730;2024-02-28T05:14:40;14.52;;;11.20;;
38262;SDS011;24054;50.128;19.730;2024-02-28T05:17:07;13.27;;;10.23;;
38262;SDS011;24054;50.128;19.730;2024-02-28T05:19:34;15.57;;;11.93;;
38262;SDS011;24054;50.128;19.730;2024-02-28T05:22:02;15.57;;;11.55;;
38262;SDS011;24054;50.128;19.730;2024-02-28T05:24:29;13.60;;;11.10;;
38262;SDS011;24054;50.128;19.730;2024-02-28T05:26:56;13.38;;;11.10;;
38262;SDS011;24054;50.128;19.730;2024-02-28T05:29:23;13.88;;;11.48;;
38262;SDS011;24054;50.128;19.730;2024-02-28T05:31:52;12.68;;;10.82;;
38262;SDS011;24054;50.128;19.730;2024-02-28T05:34:19;13.77;;;11.07;;
38262;SDS011;24054;50.128;19.730;2024-02-28T05:36:46;14.20;;;11.77;;
38262;SDS011;24054;50.128;19.730;2024-02-28T05:39:14;14.43;;;12.07;;
38262;SDS011;24054;50.128;19.730;2024-02-28T05:41:40;12.45;;;10.48;;
38262;SDS011;24054;50.128;19.730;2024-02-28T05:44:07;13.38;;;10.98;;
38262;SDS011;24054;50.128;19.730;2024-02-28T05:46:35;12.40;;;10.63;;
38262;SDS011;24054;50.128;19.730;2024-02-28T05:49:04;13.32;;;10.88;;
38262;SDS011;24054;50.128;19.730;2024-02-28T05:53:58;12.82;;;10.05;;
38262;SDS011;24054;50.128;19.730;2024-02-28T05:56:25;13.75;;;11.13;;
38262;SDS011;24054;50.128;19.730;2024-02-28T05:58:52;14.13;;;11.70;;
38262;SDS011;24054;50.128;19.730;2024-02-28T06:01:19;12.45;;;10.65;;
38262;SDS011;24054;50.128;19.730;2024-02-28T06:03:47;12.93;;;11.00;;
38262;SDS011;24054;50.128;19.730;2024-02-28T06:06:17;12.95;;;10.63;;
38262;SDS011;24054;50.128;19.730;2024-02-28T06:08:44;12.40;;;10.73;;
38262;SDS011;24054;50.128;19.730;2024-02-28T06:11:11;13.55;;;10.98;;
38262;SDS011;24054;50.128;19.730;2024-02-28T06:13:40;14.93;;;11.25;;
38262;SDS011;24054;50.128;19.730;2024-02-28T06:16:07;13.63;;;11.68;;
38262;SDS011;24054;50.128;19.730;2024-02-28T06:18:40;14.25;;;12.27;;
38262;SDS011;24054;50.128;19.730;2024-02-28T06:21:07;15.38;;;11.68;;
38262;SDS011;24054;50.128;19.730;2024-02-28T06:23:35;15.85;;;12.02;;
38262;SDS011;24054;50.128;19.730;2024-02-28T06:26:02;16.38;;;12.90;;
38262;SDS011;24054;50.128;19.730;2024-02-28T06:28:30;14.88;;;11.90;;
38262;SDS011;24054;50.128;19.730;2024-02-28T06:30:57;15.05;;;12.25;;
38262;SDS011;24054;50.128;19.730;2024-02-28T06:33:24;16.48;;;11.82;;
38262;SDS011;24054;50.128;19.730;2024-02-28T06:35:51;14.85;;;12.60;;
38262;SDS011;24054;50.128;19.730;2024-02-28T06:38:18;15.23;;;11.88;;
38262;SDS011;24054;50.128;19.730;2024-02-28T06:40:47;12.95;;;11.48;;
38262;SDS011;24054;50.128;19.730;2024-02-28T06:43:14;13.88;;;12.38;;
38262;SDS011;24054;50.128;19.730;2024-02-28T06:45:41;13.05;;;11.32;;
38262;SDS011;24054;50.128;19.730;2024-02-28T06:48:08;14.68;;;11.93;;
38262;SDS011;24054;50.128;19.730;2024-02-28T06:50:35;13.65;;;11.70;;
38262;SDS011;24054;50.128;19.730;2024-02-28T06:53:02;14.15;;;11.48;;
38262;SDS011;24054;50.128;19.730;2024-02-28T06:55:30;13.07;;;11.30;;
38262;SDS011;24054;50.128;19.730;2024-02-28T06:57:58;13.88;;;11.63;;
38262;SDS011;24054;50.128;19.730;2024-02-28T07:02:52;12.43;;;10.75;;
38262;SDS011;24054;50.128;19.730;2024-02-28T07:05:19;14.98;;;11.57;;
38262;SDS011;24054;50.128;19.730;2024-02-28T07:07:46;13.98;;;11.50;;
38262;SDS011;24054;50.128;19.730;2024-02-28T07:10:13;12.57;;;10.70;;
38262;SDS011;24054;50.128;19.730;2024-02-28T07:12:40;16.13;;;11.10;;
38262;SDS011;24054;50.128;19.730;2024-02-28T07:15:09;14.50;;;11.50;;
38262;SDS011;24054;50.128;19.730;2024-02-28T07:17:37;15.77;;;11.90;;
38262;SDS011;24054;50.128;19.730;2024-02-28T07:20:04;15.00;;;11.75;;
38262;SDS011;24054;50.128;19.730;2024-02-28T07:22:32;21.52;;;13.63;;
38262;SDS011;24054;50.128;19.730;2024-02-28T07:24:59;22.98;;;12.88;;
38262;SDS011;24054;50.128;19.730;2024-02-28T07:27:27;28.15;;;13.10;;
38262;SDS011;24054;50.128;19.730;2024-02-28T07:29:54;26.70;;;14.40;;
38262;SDS011;24054;50.128;19.730;2024-02-28T07:32:22;22.88;;;13.27;;
38262;SDS011;24054;50.128;19.730;2024-02-28T07:34:49;26.10;;;13.27;;
38262;SDS011;24054;50.128;19.730;2024-02-28T07:37:16;25.70;;;13.65;;
38262;SDS011;24054;50.128;19.730;2024-02-28T07:39:43;26.35;;;13.50;;
38262;SDS011;24054;50.128;19.730;2024-02-28T07:42:10;31.05;;;13.43;;
38262;SDS011;24054;50.128;19.730;2024-02-28T07:44:37;25.42;;;14.52;;
38262;SDS011;24054;50.128;19.730;2024-02-28T07:49:34;23.65;;;12.60;;
38262;SDS011;24054;50.128;19.730;2024-02-28T07:52:02;26.95;;;13.27;;
38262;SDS011;24054;50.128;19.730;2024-02-28T07:54:29;31.85;;;13.30;;
38262;SDS011;24054;50.128;19.730;2024-02-28T07:56:56;25.15;;;12.63;;
38262;SDS011;24054;50.128;19.730;2024-02-28T07:59:24;32.20;;;13.80;;
38262;SDS011;24054;50.128;19.730;2024-02-28T08:01:51;24.73;;;12.38;;
38262;SDS011;24054;50.128;19.730;2024-02-28T08:04:18;21.58;;;12.48;;
38262;SDS011;24054;50.128;19.730;2024-02-28T08:06:46;24.60;;;12.98;;
38262;SDS011;24054;50.128;19.730;2024-02-28T08:09:13;23.17;;;12.18;;
38262;SDS011;24054;50.128;19.730;2024-02-28T08:11:41;26.20;;;13.38;;
38262;SDS011;24054;50.128;19.730;2024-02-28T08:14:07;28.30;;;13.60;;
38262;SDS011;24054;50.128;19.730;2024-02-28T08:16:35;31.40;;;13.85;;
38262;SDS011;24054;50.128;19.730;2024-02-28T08:19:02;22.60;;;13.27;;
38262;SDS011;24054;50.128;19.730;2024-02-28T08:21:30;21.45;;;12.98;;
38262;SDS011;24054;50.128;19.730;2024-02-28T08:23:58;21.55;;;12.68;;
38262;SDS011;24054;50.128;19.730;2024-02-28T08:26:28;27.58;;;12.90;;
38262;SDS011;24054;50.128;19.730;2024-02-28T08:28:55;28.80;;;13.55;;
38262;SDS011;24054;50.128;19.730;2024-02-28T08:31:23;21.83;;;12.43;;
38262;SDS011;24054;50.128;19.730;2024-02-28T08:33:50;20.33;;;12.20;;
38262;SDS011;24054;50.128;19.730;2024-02-28T08:36:17;22.35;;;13.40;;
38262;SDS011;24054;50.128;19.730;2024-02-28T08:38:45;22.55;;;12.70;;
38262;SDS011;24054;50.128;19.730;2024-02-28T08:41:13;18.92;;;12.93;;
38262;SDS011;24054;50.128;19.730;2024-02-28T08:43:42;20.17;;;12.90;;
38262;SDS011;24054;50.128;19.730;2024-02-28T08:46:13;22.77;;;12.15;;
38262;SDS011;24054;50.128;19.730;2024-02-28T08:48:40;20.90;;;11.98;;
38262;SDS011;24054;50.128;19.730;2024-02-28T08:51:08;21.42;;;11.90;;
38262;SDS011;24054;50.128;19.730;2024-02-28T08:53:36;19.13;;;12.50;;
38262;SDS011;24054;50.128;19.730;2024-02-28T08:56:04;19.70;;;11.25;;
38262;SDS011;24054;50.128;19.730;2024-02-28T08:58:34;18.45;;;11.93;;
38262;SDS011;24054;50.128;19.730;2024-02-28T09:01:02;18.85;;;12.48;;
38262;SDS011;24054;50.128;19.730;2024-02-28T09:03:30;23.38;;;12.23;;
38262;SDS011;24054;50.128;19.730;2024-02-28T09:05:57;20.17;;;12.60;;
38262;SDS011;24054;50.128;19.730;2024-02-28T09:08:24;20.60;;;12.45;;
38262;SDS011;24054;50.128;19.730;2024-02-28T09:10:51;20.83;;;11.80;;
38262;SDS011;24054;50.128;19.730;2024-02-28T09:13:18;22.88;;;12.40;;
38262;SDS011;24054;50.128;19.730;2024-02-28T09:15:47;20.80;;;12.35;;
38262;SDS011;24054;50.128;19.730;2024-02-28T09:18:14;19.63;;;12.15;;
38262;SDS011;24054;50.128;19.730;2024-02-28T09:20:41;16.08;;;11.63;;
38262;SDS011;24054;50.128;19.730;2024-02-28T09:23:08;18.40;;;11.68;;
38262;SDS011;24054;50.128;19.730;2024-02-28T09:25:35;18.98;;;12.05;;
38262;SDS011;24054;50.128;19.730;2024-02-28T09:28:02;21.55;;;12.88;;
38262;SDS011;24054;50.128;19.730;2024-02-28T09:30:29;16.55;;;12.20;;
38262;SDS011;24054;50.128;19.730;2024-02-28T09:32:58;19.65;;;13.00;;
38262;SDS011;24054;50.128;19.730;2024-02-28T09:37:52;18.63;;;12.05;;
38262;SDS011;24054;50.128;19.730;2024-02-28T09:40:20;17.92;;;12.95;;
38262;SDS011;24054;50.128;19.730;2024-02-28T09:42:47;19.90;;;12.93;;
38262;SDS011;24054;50.128;19.730;2024-02-28T09:45:19;17.30;;;12.10;;
38262;SDS011;24054;50.128;19.730;2024-02-28T09:47:47;18.58;;;11.65;;
38262;SDS011;24054;50.128;19.730;2024-02-28T09:50:16;19.20;;;12.60;;
38262;SDS011;24054;50.128;19.730;2024-02-28T09:52:44;15.35;;;11.90;;
38262;SDS011;24054;50.128;19.730;2024-02-28T09:55:11;21.40;;;12.90;;
38262;SDS011;24054;50.128;19.730;2024-02-28T09:57:38;17.52;;;12.88;;
38262;SDS011;24054;50.128;19.730;2024-02-28T10:00:09;15.93;;;12.10;;
38262;SDS011;24054;50.128;19.730;2024-02-28T10:02:36;17.23;;;12.73;;
38262;SDS011;24054;50.128;19.730;2024-02-28T10:07:34;18.65;;;12.88;;
38262;SDS011;24054;50.128;19.730;2024-02-28T10:10:01;16.30;;;12.05;;
38262;SDS011;24054;50.128;19.730;2024-02-28T10:12:30;15.88;;;12.07;;
38262;SDS011;24054;50.128;19.730;2024-02-28T10:14:57;23.27;;;14.45;;
38262;SDS011;24054;50.128;19.730;2024-02-28T10:17:24;17.77;;;13.48;;
38262;SDS011;24054;50.128;19.730;2024-02-28T10:19:51;23.35;;;15.35;;
38262;SDS011;24054;50.128;19.730;2024-02-28T10:22:18;19.08;;;14.35;;
38262;SDS011;24054;50.128;19.730;2024-02-28T10:24:48;19.17;;;14.52;;
38262;SDS011;24054;50.128;19.730;2024-02-28T10:27:15;19.30;;;14.85;;
38262;SDS011;24054;50.128;19.730;2024-02-28T10:29:44;20.92;;;15.25;;
38262;SDS011;24054;50.128;19.730;2024-02-28T10:32:11;20.45;;;16.38;;
38262;SDS011;24054;50.128;19.730;2024-02-28T10:34:38;20.05;;;15.80;;
38262;SDS011;24054;50.128;19.730;2024-02-28T10:37:06;27.33;;;16.67;;
38262;SDS011;24054;50.128;19.730;2024-02-28T10:39:35;19.80;;;15.00;;
38262;SDS011;24054;50.128;19.730;2024-02-28T10:42:05;23.30;;;15.63;;
38262;SDS011;24054;50.128;19.730;2024-02-28T10:44:33;21.05;;;16.50;;
38262;SDS011;24054;50.128;19.730;2024-02-28T10:47:02;33.42;;;23.80;;
38262;SDS011;24054;50.128;19.730;2024-02-28T10:49:31;36.25;;;25.95;;
38262;SDS011;24054;50.128;19.730;2024-02-28T10:51:58;38.65;;;25.35;;
38262;SDS011;24054;50.128;19.730;2024-02-28T10:54:25;31.60;;;21.65;;
38262;SDS011;24054;50.128;19.730;2024-02-28T10:56:55;28.15;;;21.40;;
38262;SDS011;24054;50.128;19.730;2024-02-28T10:59:25;28.67;;;20.92;;
38262;SDS011;24054;50.128;19.730;2024-02-28T11:01:56;35.35;;;20.95;;
38262;SDS011;24054;50.128;19.730;2024-02-28T11:04:23;28.92;;;20.30;;
38262;SDS011;24054;50.128;19.730;2024-02-28T11:06:51;29.77;;;20.40;;
38262;SDS011;24054;50.128;19.730;2024-02-28T11:09:20;33.97;;;23.45;;
38262;SDS011;24054;50.128;19.730;2024-02-28T11:11:51;35.50;;;24.13;;
38262;SDS011;24054;50.128;19.730;2024-02-28T11:14:18;36.33;;;24.27;;
38262;SDS011;24054;50.128;19.730;2024-02-28T11:16:58;34.88;;;22.85;;
38262;SDS011;24054;50.128;19.730;2024-02-28T11:19:27;34.40;;;22.83;;
38262;SDS011;24054;50.128;19.730;2024-02-28T11:21:55;38.08;;;23.50;;
38262;SDS011;24054;50.128;19.730;2024-02-28T11:24:23;29.53;;;22.73;;
38262;SDS011;24054;50.128;19.730;2024-02-28T11:26:51;27.52;;;20.83;;
38262;SDS011;24054;50.128;19.730;2024-02-28T11:29:24;29.52;;;20.73;;
38262;SDS011;24054;50.128;19.730;2024-02-28T11:31:53;28.27;;;20.58;;
38262;SDS011;24054;50.128;19.730;2024-02-28T11:34:21;30.35;;;21.60;;
38262;SDS011;24054;50.128;19.730;2024-02-28T11:36:49;25.23;;;19.88;;
38262;SDS011;24054;50.128;19.730;2024-02-28T11:39:18;29.60;;;21.40;;
38262;SDS011;24054;50.128;19.730;2024-02-28T11:41:46;32.83;;;21.65;;
38262;SDS011;24054;50.128;19.730;2024-02-28T11:44:15;34.92;;;21.60;;
38262;SDS011;24054;50.128;19.730;2024-02-28T11:46:42;29.45;;;20.10;;
38262;SDS011;24054;50.128;19.730;2024-02-28T11:49:12;29.88;;;20.52;;
38262;SDS011;24054;50.128;19.730;2024-02-28T11:51:40;28.02;;;19.25;;
38262;SDS011;24054;50.128;19.730;2024-02-28T11:54:07;31.27;;;19.67;;
38262;SDS011;24054;50.128;19.730;2024-02-28T11:56:36;30.17;;;19.33;;
38262;SDS011;24054;50.128;19.730;2024-02-28T11:59:03;27.30;;;19.40;;
38262;SDS011;24054;50.128;19.730;2024-02-28T12:01:32;23.92;;;18.85;;
38262;SDS011;24054;50.128;19.730;2024-02-28T12:04:03;25.15;;;18.45;;
38262;SDS011;24054;50.128;19.730;2024-02-28T12:06:32;27.27;;;18.97;;
38262;SDS011;24054;50.128;19.730;2024-02-28T12:09:01;25.02;;;17.73;;
38262;SDS011;24054;50.128;19.730;2024-02-28T12:11:29;33.40;;;18.27;;
38262;SDS011;24054;50.128;19.730;2024-02-28T12:13:56;24.27;;;18.15;;
38262;SDS011;24054;50.128;19.730;2024-02-28T12:16:24;22.40;;;17.00;;
38262;SDS011;24054;50.128;19.730;2024-02-28T12:18:52;26.13;;;16.63;;
38262;SDS011;24054;50.128;19.730;2024-02-28T12:21:19;24.98;;;16.88;;
38262;SDS011;24054;50.128;19.730;2024-02-28T12:23:48;21.73;;;15.88;;
38262;SDS011;24054;50.128;19.730;2024-02-28T12:26:16;24.40;;;14.85;;
38262;SDS011;24054;50.128;19.730;2024-02-28T12:28:44;24.13;;;15.38;;
38262;SDS011;24054;50.128;19.730;2024-02-28T12:31:11;25.05;;;15.30;;
38262;SDS011;24054;50.128;19.730;2024-02-28T12:33:38;21.65;;;14.95;;
38262;SDS011;24054;50.128;19.730;2024-02-28T12:36:07;23.48;;;15.65;;
38262;SDS011;24054;50.128;19.730;2024-02-28T12:38:34;21.27;;;14.55;;
38262;SDS011;24054;50.128;19.730;2024-02-28T12:41:03;19.25;;;14.48;;
38262;SDS011;24054;50.128;19.730;2024-02-28T12:43:30;18.60;;;14.43;;
38262;SDS011;24054;50.128;19.730;2024-02-28T12:45:58;19.50;;;14.00;;
38262;SDS011;24054;50.128;19.730;2024-02-28T12:48:25;19.08;;;14.07;;
38262;SDS011;24054;50.128;19.730;2024-02-28T12:50:52;19.02;;;14.43;;
38262;SDS011;24054;50.128;19.730;2024-02-28T12:53:19;20.30;;;14.70;;
38262;SDS011;24054;50.128;19.730;2024-02-28T12:55:46;18.10;;;12.98;;
38262;SDS011;24054;50.128;19.730;2024-02-28T12:58:14;20.13;;;14.07;;
38262;SDS011;24054;50.128;19.730;2024-02-28T13:00:41;18.67;;;14.15;;
38262;SDS011;24054;50.128;19.730;2024-02-28T13:03:08;21.38;;;14.05;;
38262;SDS011;24054;50.128;19.730;2024-02-28T13:05:36;18.80;;;13.88;;
38262;SDS011;24054;50.128;19.730;2024-02-28T13:08:03;17.95;;;14.05;;
38262;SDS011;24054;50.128;19.730;2024-02-28T13:10:31;18.60;;;13.97;;
38262;SDS011;24054;50.128;19.730;2024-02-28T13:13:01;18.58;;;13.88;;
38262;SDS011;24054;50.128;19.730;2024-02-28T13:15:29;22.80;;;14.98;;
38262;SDS011;24054;50.128;19.730;2024-02-28T13:17:56;24.73;;;14.23;;
38262;SDS011;24054;50.128;19.730;2024-02-28T13:20:24;24.02;;;14.27;;
38262;SDS011;24054;50.128;19.730;2024-02-28T13:22:51;23.77;;;14.35;;
38262;SDS011;24054;50.128;19.730;2024-02-28T13:25:18;17.80;;;13.90;;
38262;SDS011;24054;50.128;19.730;2024-02-28T13:27:45;21.60;;;14.68;;
38262;SDS011;24054;50.128;19.730;2024-02-28T13:30:13;21.05;;;13.77;;
38262;SDS011;24054;50.128;19.730;2024-02-28T13:32:41;19.70;;;13.60;;
38262;SDS011;24054;50.128;19.730;2024-02-28T13:35:08;18.20;;;13.60;;
38262;SDS011;24054;50.128;19.730;2024-02-28T13:37:36;19.70;;;12.57;;
38262;SDS011;24054;50.128;19.730;2024-02-28T13:42:33;22.55;;;13.90;;
38262;SDS011;24054;50.128;19.730;2024-02-28T13:45:00;20.35;;;13.60;;
38262;SDS011;24054;50.128;19.730;2024-02-28T13:47:32;16.90;;;12.98;;
38262;SDS011;24054;50.128;19.730;2024-02-28T13:50:01;20.48;;;14.18;;
38262;SDS011;24054;50.128;19.730;2024-02-28T13:52:28;18.83;;;13.20;;
38262;SDS011;24054;50.128;19.730;2024-02-28T13:54:55;14.90;;;12.25;;
38262;SDS011;24054;50.128;19.730;2024-02-28T13:57:22;18.88;;;13.40;;
38262;SDS011;24054;50.128;19.730;2024-02-28T13:59:49;18.02;;;13.55;;
38262;SDS011;24054;50.128;19.730;2024-02-28T14:02:19;17.92;;;12.82;;
38262;SDS011;24054;50.128;19.730;2024-02-28T14:04:46;17.38;;;12.80;;
38262;SDS011;24054;50.128;19.730;2024-02-28T14:07:16;19.80;;;13.57;;
38262;SDS011;24054;50.128;19.730;2024-02-28T14:09:43;16.30;;;13.27;;
38262;SDS011;24054;50.128;19.730;2024-02-28T14:12:11;17.20;;;13.20;;
38262;SDS011;24054;50.128;19.730;2024-02-28T14:14:38;16.67;;;11.85;;
38262;SDS011;24054;50.128;19.730;2024-02-28T14:17:05;17.88;;;12.90;;
38262;SDS011;24054;50.128;19.730;2024-02-28T14:19:32;18.55;;;12.93;;
38262;SDS011;24054;50.128;19.730;2024-02-28T14:22:01;16.60;;;12.98;;
38262;SDS011;24054;50.128;19.730;2024-02-28T14:24:31;15.77;;;13.05;;
38262;SDS011;24054;50.128;19.730;2024-02-28T14:29:26;15.05;;;12.15;;
38262;SDS011;24054;50.128;19.730;2024-02-28T14:31:54;16.63;;;12.63;;